Time;durP1;ratioP1;P1;durP2;ratioP2;P2;SDS_P1;SDS_P2;PMS_P1;PMS_P2;Temp;Humidity;BMP_temperature;BMP_pressure;BME280_temperature;BME280_humidity;BME280_pressure;Samples;Min_cycle;Max_cycle;Signal;HPM_P1;HPM_P2
2022/04/05 00:00:29;;;;;;;0.90;0.90;;;7.20;99.90;;;;;;5002786;28;20050;-87
2022/04/05 00:02:57;;;;;;;0.30;0.30;;;7.20;99.90;;;;;;5003332;28;20042;-87
2022/04/05 00:05:23;;;;;;;5.93;1.80;;;7.20;99.90;;;;;;5002048;28;20046;-87
2022/04/05 00:07:49;;;;;;;0.40;0.40;;;7.20;99.90;;;;;;5002063;28;20108;-87
2022/04/05 00:10:15;;;;;;;0.60;0.60;;;7.20;99.90;;;;;;5002586;28;20042;-87
2022/04/05 00:12:41;;;;;;;0.45;0.40;;;7.20;99.90;;;;;;4985552;28;20084;-88
2022/04/05 00:15:11;;;;;;;0.90;0.85;;;7.20;99.90;;;;;;4985763;28;20089;-87
2022/04/05 00:17:37;;;;;;;2.90;1.40;;;7.10;99.90;;;;;;5003588;28;20107;-87
2022/04/05 00:20:04;;;;;;;0.50;0.43;;;7.10;99.90;;;;;;5001465;28;20042;-86
2022/04/05 00:22:29;;;;;;;3.15;1.00;;;7.10;99.90;;;;;;4985158;28;20115;-87
2022/04/05 00:24:55;;;;;;;0.63;0.55;;;7.10;99.90;;;;;;5003228;28;20042;-87
2022/04/05 00:27:20;;;;;;;0.68;0.68;;;7.10;99.90;;;;;;4984577;28;20049;-87
2022/04/05 00:29:46;;;;;;;0.52;0.52;;;7.10;99.90;;;;;;5001650;28;20052;-87
2022/04/05 00:32:12;;;;;;;2.85;1.13;;;7.10;99.90;;;;;;5002114;28;20405;-87
2022/04/05 00:34:39;;;;;;;0.20;0.20;;;7.10;99.90;;;;;;4986030;28;20135;-86
2022/04/05 00:37:04;;;;;;;1.17;0.60;;;7.10;99.90;;;;;;5001638;28;20033;-87
2022/04/05 00:39:30;;;;;;;1.92;1.27;;;7.10;99.90;;;;;;5002143;28;20091;-87
2022/04/05 00:41:56;;;;;;;3.00;1.50;;;7.10;99.90;;;;;;5001533;28;20129;-87
2022/04/05 00:44:22;;;;;;;1.50;1.35;;;7.10;99.90;;;;;;5001005;28;20060;-87
2022/04/05 00:46:49;;;;;;;0.30;0.30;;;7.10;99.90;;;;;;4987741;28;20037;-88
2022/04/05 00:49:23;;;;;;;0.80;0.52;;;7.10;99.90;;;;;;4984283;28;20069;-87
2022/04/05 00:51:48;;;;;;;1.20;1.15;;;7.10;99.90;;;;;;5000174;28;20045;-87
2022/04/05 00:54:16;;;;;;;3.40;1.52;;;7.10;99.90;;;;;;5001095;28;20053;-86
2022/04/05 00:56:44;;;;;;;2.97;1.80;;;7.10;99.90;;;;;;4984418;28;20069;-87
2022/04/05 00:59:11;;;;;;;0.52;0.52;;;7.10;99.90;;;;;;4983997;28;20072;-86
2022/04/05 01:01:38;;;;;;;0.40;0.40;;;7.10;99.90;;;;;;5003006;28;20077;-87
2022/04/05 01:04:03;;;;;;;0.45;0.45;;;7.10;99.90;;;;;;5002069;28;20045;-86
2022/04/05 01:06:38;;;;;;;0.73;0.70;;;7.10;99.90;;;;;;5000685;28;20050;-87
2022/04/05 01:09:03;;;;;;;0.43;0.43;;;7.10;99.90;;;;;;5002249;28;20846;-87
2022/04/05 01:11:32;;;;;;;8.52;0.65;;;7.10;99.90;;;;;;5002204;28;20125;-87
2022/04/05 01:13:58;;;;;;;0.77;0.77;;;7.10;99.90;;;;;;4984931;28;20519;-86
2022/04/05 01:16:23;;;;;;;0.77;0.77;;;7.10;99.90;;;;;;5001525;28;20121;-87
2022/04/05 01:18:49;;;;;;;1.88;0.68;;;7.10;99.90;;;;;;4985086;28;20465;-87
2022/04/05 01:21:15;;;;;;;1.10;0.70;;;7.10;99.90;;;;;;4983056;28;20092;-86
2022/04/05 01:24:07;;;;;;;1.13;0.50;;;7.10;99.90;;;;;;4984997;28;20128;-86
2022/04/05 01:26:44;;;;;;;0.68;0.50;;;7.10;99.90;;;;;;5002633;28;20545;-85
2022/04/05 01:29:10;;;;;;;5.00;0.95;;;7.10;99.90;;;;;;4983771;28;20543;-87
2022/04/05 01:31:44;;;;;;;0.35;0.35;;;7.20;99.90;;;;;;5003086;28;20435;-86
2022/04/05 01:34:11;;;;;;;2.22;1.15;;;7.10;99.90;;;;;;5001908;28;20044;-86
2022/04/05 01:36:41;;;;;;;3.10;0.93;;;7.10;99.90;;;;;;4983962;28;20045;-87
2022/04/05 01:39:08;;;;;;;0.90;0.88;;;7.20;99.90;;;;;;5001576;28;20037;-87
2022/04/05 01:41:34;;;;;;;3.20;1.23;;;7.20;99.90;;;;;;5005692;28;20077;-86
2022/04/05 01:44:00;;;;;;;2.30;1.20;;;7.20;99.90;;;;;;5005126;28;20126;-87
2022/04/05 01:46:26;;;;;;;1.75;0.95;;;7.20;99.90;;;;;;4988518;28;20046;-86
2022/04/05 01:48:52;;;;;;;1.92;1.13;;;7.20;99.90;;;;;;4986024;28;20038;-87
2022/04/05 01:51:18;;;;;;;0.65;0.55;;;7.20;99.90;;;;;;4970292;28;20042;-87
2022/04/05 01:53:43;;;;;;;4.15;1.70;;;7.20;99.90;;;;;;5004097;28;20081;-87
2022/04/05 01:56:09;;;;;;;0.60;0.60;;;7.20;99.90;;;;;;5004272;28;20034;-88
2022/04/05 01:58:37;;;;;;;3.40;1.00;;;7.20;99.90;;;;;;5004848;28;20073;-86
2022/04/05 02:01:03;;;;;;;0.95;0.85;;;7.20;99.90;;;;;;5005592;28;20045;-87
2022/04/05 02:03:30;;;;;;;3.58;1.25;;;7.20;99.90;;;;;;5005251;28;20109;-86
2022/04/05 02:05:56;;;;;;;0.43;0.43;;;7.20;99.90;;;;;;5004702;28;20503;-86
2022/04/05 02:08:21;;;;;;;0.65;0.57;;;7.10;99.90;;;;;;5004804;28;20140;-86
2022/04/05 02:10:47;;;;;;;5.35;1.33;;;7.10;99.90;;;;;;5005646;28;20140;-86
2022/04/05 02:13:13;;;;;;;0.65;0.47;;;7.10;99.90;;;;;;4983943;28;20133;-88
2022/04/05 02:15:38;;;;;;;0.52;0.52;;;7.10;99.90;;;;;;4998856;28;20049;-85
2022/04/05 02:18:04;;;;;;;2.15;1.30;;;7.10;99.90;;;;;;5005743;28;20057;-87
2022/04/05 02:20:29;;;;;;;1.60;1.17;;;7.10;99.90;;;;;;5003840;28;20052;-86
2022/04/05 02:22:55;;;;;;;0.88;0.85;;;7.10;99.90;;;;;;5004936;28;20125;-86
2022/04/05 02:25:21;;;;;;;1.38;0.77;;;7.10;99.90;;;;;;5004925;28;20092;-86
2022/04/05 02:27:47;;;;;;;1.60;1.08;;;7.10;99.90;;;;;;5005459;28;20049;-86
2022/04/05 02:30:13;;;;;;;8.30;1.65;;;7.10;99.90;;;;;;5004222;28;20038;-87
2022/04/05 02:32:39;;;;;;;2.72;1.42;;;7.10;99.90;;;;;;5005106;28;20056;-87
2022/04/05 02:35:05;;;;;;;1.95;1.45;;;7.10;99.90;;;;;;5004301;28;20046;-87
2022/04/05 02:37:31;;;;;;;0.35;0.35;;;7.10;99.90;;;;;;4986689;28;20065;-86
2022/04/05 02:39:56;;;;;;;0.45;0.45;;;7.10;99.90;;;;;;4987406;28;20046;-87
2022/04/05 02:42:22;;;;;;;0.95;0.50;;;7.10;99.90;;;;;;5004311;28;20089;-87
2022/04/05 02:44:47;;;;;;;1.13;0.90;;;7.10;99.90;;;;;;5005014;28;20042;-87
2022/04/05 02:47:15;;;;;;;4.20;1.45;;;7.10;99.90;;;;;;5004174;28;20045;-87
2022/04/05 02:49:40;;;;;;;0.52;0.52;;;7.10;99.90;;;;;;5003409;28;20042;-87
2022/04/05 02:52:07;;;;;;;1.40;1.30;;;7.10;99.90;;;;;;4986490;28;20049;-86
2022/04/05 02:54:32;;;;;;;7.63;2.65;;;7.10;99.90;;;;;;5003586;28;20038;-87
2022/04/05 02:56:58;;;;;;;3.90;1.40;;;7.10;99.90;;;;;;5004381;28;20614;-87
2022/04/05 02:59:24;;;;;;;2.28;1.55;;;7.10;99.90;;;;;;4986113;28;20054;-87
2022/04/05 03:01:49;;;;;;;2.08;0.90;;;7.10;99.90;;;;;;5004753;28;20505;-86
2022/04/05 03:04:15;;;;;;;2.88;1.38;;;7.10;99.90;;;;;;5004042;28;20053;-87
2022/04/05 03:06:41;;;;;;;1.05;0.95;;;7.10;99.90;;;;;;5002907;28;20250;-86
2022/04/05 03:09:07;;;;;;;0.77;0.77;;;7.10;99.90;;;;;;5004536;28;20408;-87
2022/04/05 03:11:33;;;;;;;3.92;0.75;;;7.10;99.90;;;;;;5002242;28;20062;-86
2022/04/05 03:13:59;;;;;;;0.55;0.45;;;7.00;99.90;;;;;;5004464;28;20068;-86
2022/04/05 03:16:24;;;;;;;1.00;0.95;;;7.00;99.90;;;;;;4986102;28;20042;-87
2022/04/05 03:18:50;;;;;;;2.88;0.77;;;7.10;99.90;;;;;;5003746;28;20135;-87
2022/04/05 03:21:17;;;;;;;2.72;1.60;;;7.10;99.90;;;;;;5002736;28;20048;-86
2022/04/05 03:23:42;;;;;;;2.38;0.57;;;7.10;99.90;;;;;;4986546;28;20052;-87
2022/04/05 03:26:08;;;;;;;0.63;0.63;;;7.10;99.90;;;;;;5004579;28;20728;-87
2022/04/05 03:28:33;;;;;;;7.07;1.92;;;7.10;99.90;;;;;;5002784;28;20049;-87
2022/04/05 03:30:59;;;;;;;1.02;0.63;;;7.10;99.90;;;;;;5004380;28;20508;-87
2022/04/05 03:33:25;;;;;;;0.75;0.75;;;7.10;99.90;;;;;;5002127;28;20390;-87
2022/04/05 03:35:51;;;;;;;0.50;0.50;;;7.10;99.90;;;;;;5001385;28;20052;-86
2022/04/05 03:38:16;;;;;;;0.40;0.40;;;7.10;99.90;;;;;;5003579;28;20038;-87
2022/04/05 03:40:42;;;;;;;1.15;1.15;;;7.00;99.90;;;;;;4985876;28;20046;-87
2022/04/05 03:43:12;;;;;;;1.85;1.13;;;7.10;99.90;;;;;;5004279;28;20382;-88
2022/04/05 03:45:38;;;;;;;1.65;0.82;;;7.10;99.90;;;;;;4993852;28;20121;-88
2022/04/05 03:48:04;;;;;;;1.42;1.10;;;7.10;99.90;;;;;;4994955;28;20576;-89
2022/04/05 03:50:31;;;;;;;0.82;0.75;;;7.10;99.90;;;;;;4984696;28;20045;-88
2022/04/05 03:52:59;;;;;;;0.40;0.40;;;7.00;99.90;;;;;;4985798;28;20065;-89
2022/04/05 03:55:25;;;;;;;1.00;0.95;;;7.00;99.90;;;;;;5003165;28;20136;-89
2022/04/05 03:57:50;;;;;;;1.33;1.15;;;7.10;99.90;;;;;;5003283;28;20056;-89
2022/04/05 04:00:16;;;;;;;4.38;1.45;;;7.00;99.90;;;;;;5002178;28;20348;-89
2022/04/05 04:02:42;;;;;;;2.47;1.48;;;7.00;99.90;;;;;;5001605;28;20087;-89
2022/04/05 04:05:08;;;;;;;1.13;0.85;;;7.00;99.90;;;;;;5002484;28;20064;-89
2022/04/05 04:07:38;;;;;;;1.00;0.95;;;7.00;99.90;;;;;;4970281;28;20396;-89
2022/04/05 04:10:04;;;;;;;1.20;0.88;;;7.00;99.90;;;;;;5003519;28;20057;-89
2022/04/05 04:12:31;;;;;;;1.10;0.88;;;7.00;99.90;;;;;;4983914;28;20046;-89
2022/04/05 04:14:57;;;;;;;1.73;0.95;;;7.00;99.90;;;;;;5002849;28;20050;-89
2022/04/05 04:17:23;;;;;;;1.00;0.70;;;7.00;99.90;;;;;;5002540;28;20045;-89
2022/04/05 04:19:49;;;;;;;0.68;0.60;;;7.00;99.90;;;;;;5002004;28;20038;-89
2022/04/05 04:22:14;;;;;;;9.98;1.50;;;7.00;99.90;;;;;;5002593;28;20099;-90
2022/04/05 04:24:40;;;;;;;0.93;0.85;;;7.00;99.90;;;;;;5002193;28;20103;-90
2022/04/05 04:27:06;;;;;;;0.38;0.38;;;7.00;99.90;;;;;;5003796;28;20080;-89
2022/04/05 04:29:32;;;;;;;1.55;0.88;;;7.00;99.90;;;;;;5001699;28;20523;-89
2022/04/05 04:31:57;;;;;;;5.18;1.65;;;7.00;99.90;;;;;;5003295;28;20073;-90
2022/04/05 04:34:23;;;;;;;5.15;1.17;;;7.00;99.90;;;;;;5001372;28;20381;-90
2022/04/05 04:36:49;;;;;;;0.40;0.40;;;7.00;99.90;;;;;;5002347;28;20084;-89
2022/04/05 04:39:17;;;;;;;0.95;0.73;;;7.00;99.90;;;;;;5002727;28;20046;-89
2022/04/05 04:41:43;;;;;;;3.17;1.23;;;7.00;99.90;;;;;;5002449;28;20038;-89
2022/04/05 04:44:09;;;;;;;2.05;0.80;;;7.00;99.90;;;;;;5002746;28;20049;-85
2022/04/05 04:46:34;;;;;;;1.67;0.80;;;6.90;99.90;;;;;;5002849;28;20046;-88
2022/04/05 04:49:00;;;;;;;0.50;0.50;;;6.90;99.90;;;;;;5002472;28;20049;-88
2022/04/05 04:51:26;;;;;;;0.43;0.43;;;6.90;99.90;;;;;;5001449;28;20133;-89
2022/04/05 04:53:51;;;;;;;3.88;0.93;;;6.90;99.90;;;;;;5002740;28;20034;-88
2022/04/05 04:56:17;;;;;;;0.55;0.55;;;6.90;99.90;;;;;;5001851;28;20050;-88
2022/04/05 04:58:42;;;;;;;0.40;0.40;;;6.90;99.90;;;;;;5001851;28;20089;-89
2022/04/05 05:01:08;;;;;;;0.90;0.90;;;6.90;99.90;;;;;;5002956;28;20378;-90
2022/04/05 05:03:34;;;;;;;1.02;0.70;;;6.90;99.90;;;;;;5001419;28;20331;-89
2022/04/05 05:05:59;;;;;;;1.02;1.00;;;6.90;99.90;;;;;;5001728;28;20049;-89
2022/04/05 05:08:25;;;;;;;0.98;0.88;;;6.80;99.90;;;;;;5001210;28;20053;-89
2022/04/05 05:10:51;;;;;;;0.85;0.75;;;6.80;99.90;;;;;;4985297;28;20045;-88
2022/04/05 05:13:17;;;;;;;1.08;1.08;;;6.80;99.90;;;;;;5001999;28;20133;-88
2022/04/05 05:15:43;;;;;;;3.55;1.35;;;6.90;99.90;;;;;;5003834;28;20087;-88
2022/04/05 05:18:09;;;;;;;1.00;0.60;;;6.80;99.90;;;;;;5005924;28;20447;-89
2022/04/05 05:20:35;;;;;;;5.70;1.83;;;6.80;99.90;;;;;;4987721;28;20050;-88
2022/04/05 05:23:00;;;;;;;2.38;1.05;;;6.80;99.90;;;;;;5006324;28;20069;-88
2022/04/05 05:25:26;;;;;;;1.70;1.15;;;6.80;99.90;;;;;;4988033;28;20064;-87
2022/04/05 05:27:52;;;;;;;3.15;1.55;;;6.80;99.90;;;;;;4988316;28;20106;-87
2022/04/05 05:30:17;;;;;;;5.93;0.52;;;6.80;99.90;;;;;;4987790;28;20056;-87
2022/04/05 05:32:49;;;;;;;1.40;1.00;;;6.80;99.90;;;;;;5005685;28;20038;-87
2022/04/05 05:35:15;;;;;;;0.73;0.68;;;6.80;99.90;;;;;;5004910;28;20125;-87
2022/04/05 05:37:41;;;;;;;0.32;0.32;;;6.80;99.90;;;;;;5015198;28;20712;-87
2022/04/05 05:40:07;;;;;;;4.53;1.17;;;6.80;99.90;;;;;;5005466;28;20080;-85
2022/04/05 05:42:33;;;;;;;0.50;0.50;;;6.80;99.90;;;;;;4989335;28;20497;-85
2022/04/05 05:44:58;;;;;;;1.85;0.55;;;6.80;99.90;;;;;;5004876;28;20045;-86
2022/04/05 05:47:24;;;;;;;0.73;0.65;;;6.80;99.90;;;;;;5004023;28;20049;-86
2022/04/05 05:49:50;;;;;;;1.65;1.10;;;6.80;99.90;;;;;;5004598;28;20038;-87
2022/04/05 05:52:15;;;;;;;0.45;0.45;;;6.80;99.90;;;;;;4988583;28;20120;-87
2022/04/05 05:54:41;;;;;;;0.55;0.55;;;6.80;99.90;;;;;;5004168;28;20103;-88
2022/04/05 05:57:07;;;;;;;1.15;1.15;;;6.80;99.90;;;;;;5005107;28;20034;-82
2022/04/05 05:59:33;;;;;;;0.82;0.68;;;6.80;99.90;;;;;;5003902;28;20533;-87
2022/04/05 06:01:58;;;;;;;0.30;0.30;;;6.80;99.90;;;;;;5003644;28;20088;-86
2022/04/05 06:04:24;;;;;;;11.90;1.52;;;6.80;99.90;;;;;;5002589;28;20080;-81
2022/04/05 06:06:50;;;;;;;0.40;0.40;;;6.80;99.90;;;;;;5005026;28;20568;-85
2022/04/05 06:09:15;;;;;;;4.90;1.25;;;6.80;99.90;;;;;;5003585;28;20045;-86
2022/04/05 06:11:41;;;;;;;1.80;1.10;;;6.80;99.90;;;;;;5004574;28;20462;-86
2022/04/05 06:14:06;;;;;;;2.10;1.08;;;6.80;99.90;;;;;;5005409;28;20416;-86
2022/04/05 06:16:32;;;;;;;1.85;0.82;;;6.80;99.90;;;;;;5003573;28;20037;-85
2022/04/05 06:18:58;;;;;;;0.57;0.57;;;6.80;99.90;;;;;;5003761;28;20272;-85
2022/04/05 06:21:23;;;;;;;0.63;0.63;;;6.90;99.90;;;;;;5003083;28;20041;-84
2022/04/05 06:23:49;;;;;;;2.10;1.13;;;6.90;99.90;;;;;;5001828;28;20065;-84
2022/04/05 06:26:14;;;;;;;2.80;0.90;;;6.90;99.90;;;;;;5003090;28;20046;-84
2022/04/05 06:28:40;;;;;;;1.02;0.73;;;6.90;99.90;;;;;;5002897;28;20042;-84
2022/04/05 06:31:06;;;;;;;0.75;0.38;;;6.90;99.90;;;;;;5004758;28;20507;-84
2022/04/05 06:33:31;;;;;;;0.82;0.73;;;6.90;99.90;;;;;;5003872;28;20034;-87
2022/04/05 06:35:58;;;;;;;1.30;0.70;;;6.90;99.90;;;;;;5002160;28;20554;-84
2022/04/05 06:38:25;;;;;;;4.20;1.48;;;7.00;99.90;;;;;;4985077;28;20085;-85
2022/04/05 06:40:52;;;;;;;3.83;0.88;;;7.00;99.90;;;;;;5003068;28;20038;-87
2022/04/05 06:43:24;;;;;;;2.08;1.10;;;7.00;99.90;;;;;;5001971;28;20520;-85
2022/04/05 06:45:49;;;;;;;0.88;0.60;;;7.00;99.90;;;;;;5002695;28;20033;-85
2022/04/05 06:48:15;;;;;;;1.75;0.57;;;7.00;99.90;;;;;;5001630;28;20477;-86
2022/04/05 06:50:41;;;;;;;1.25;1.23;;;7.00;99.90;;;;;;5002834;28;20050;-85
2022/04/05 06:53:09;;;;;;;1.75;0.90;;;7.10;99.90;;;;;;5002458;28;20048;-89
2022/04/05 06:55:34;;;;;;;1.38;1.17;;;7.00;99.90;;;;;;5010601;28;20046;-85
2022/04/05 06:58:00;;;;;;;0.95;0.80;;;7.10;99.90;;;;;;5003922;28;20049;-85
2022/04/05 07:00:26;;;;;;;2.63;1.02;;;7.00;99.90;;;;;;5003723;28;20045;-84
2022/04/05 07:02:54;;;;;;;0.90;0.90;;;7.00;99.90;;;;;;5008552;28;20210;-84
2022/04/05 07:05:20;;;;;;;0.95;0.95;;;7.00;99.90;;;;;;5002136;28;20527;-80
2022/04/05 07:07:46;;;;;;;1.00;0.47;;;7.10;99.90;;;;;;4985034;28;20511;-80
2022/04/05 07:10:16;;;;;;;3.20;1.08;;;7.10;99.90;;;;;;4984681;28;20046;-80
2022/04/05 07:12:42;;;;;;;1.00;0.30;;;7.10;99.90;;;;;;5002401;28;20107;-79
2022/04/05 07:15:10;;;;;;;0.98;0.65;;;7.10;99.90;;;;;;4985099;28;20050;-80
2022/04/05 07:17:36;;;;;;;0.50;0.50;;;7.10;99.90;;;;;;5001844;28;20301;-80
2022/04/05 07:20:03;;;;;;;9.90;0.90;;;7.10;99.90;;;;;;4984459;28;20064;-79
2022/04/05 07:22:28;;;;;;;1.50;1.10;;;7.10;99.90;;;;;;4968353;28;20057;-80
2022/04/05 07:24:54;;;;;;;2.70;1.10;;;7.10;99.90;;;;;;5002609;28;20042;-80
2022/04/05 07:27:19;;;;;;;0.47;0.47;;;7.10;99.90;;;;;;4984432;28;20422;-80
2022/04/05 07:29:45;;;;;;;0.40;0.40;;;7.20;99.90;;;;;;5002350;28;20050;-80
2022/04/05 07:32:10;;;;;;;0.85;0.75;;;7.20;99.90;;;;;;4983901;28;20129;-80
2022/04/05 07:34:36;;;;;;;7.20;1.20;;;7.20;99.90;;;;;;5002002;28;20092;-80
2022/04/05 07:37:02;;;;;;;0.90;0.45;;;7.20;99.90;;;;;;4984118;28;20244;-80
2022/04/05 07:39:28;;;;;;;1.55;1.15;;;7.20;99.90;;;;;;5001271;28;20057;-80
2022/04/05 07:41:53;;;;;;;0.30;0.30;;;7.20;99.90;;;;;;5001459;28;20046;-80
2022/04/05 07:44:19;;;;;;;1.67;0.73;;;7.20;99.90;;;;;;5001776;28;20045;-80
2022/04/05 07:46:45;;;;;;;0.98;0.98;;;7.20;99.90;;;;;;5001531;28;20537;-79
2022/04/05 07:49:11;;;;;;;0.73;0.73;;;7.20;99.90;;;;;;5000647;28;20041;-80
2022/04/05 07:51:37;;;;;;;2.00;1.40;;;7.30;99.90;;;;;;5002550;28;20041;-80
2022/04/05 07:54:04;;;;;;;2.00;0.57;;;7.30;99.90;;;;;;5001183;28;20462;-80
2022/04/05 07:56:30;;;;;;;0.77;0.70;;;7.30;99.90;;;;;;5001266;28;20046;-80
2022/04/05 07:58:55;;;;;;;0.47;0.47;;;7.30;99.90;;;;;;5001194;28;20099;-80
2022/04/05 08:01:21;;;;;;;1.27;0.85;;;7.30;99.90;;;;;;5001631;28;20052;-79
2022/04/05 08:03:47;;;;;;;0.65;0.65;;;7.40;99.90;;;;;;4997966;28;20030;-80
2022/04/05 08:06:13;;;;;;;0.30;0.30;;;7.40;99.90;;;;;;4999351;28;20544;-80
2022/04/05 08:08:38;;;;;;;2.63;0.90;;;7.40;99.90;;;;;;5004035;28;20038;-79
2022/04/05 08:11:04;;;;;;;0.43;0.30;;;7.40;99.90;;;;;;5001766;28;20089;-81
2022/04/05 08:13:29;;;;;;;0.50;0.50;;;7.40;99.90;;;;;;5000628;28;20042;-81
2022/04/05 08:15:55;;;;;;;5.72;1.77;;;7.50;99.90;;;;;;5000716;28;20124;-81
2022/04/05 08:18:21;;;;;;;4.18;1.75;;;7.50;99.90;;;;;;4990986;28;20092;-81
2022/04/05 08:20:48;;;;;;;0.55;0.55;;;7.50;99.90;;;;;;4988066;28;20049;-80
2022/04/05 08:23:14;;;;;;;0.38;0.30;;;7.50;99.90;;;;;;5000202;28;20046;-80
2022/04/05 08:25:39;;;;;;;1.10;0.57;;;7.50;99.90;;;;;;4999551;28;20258;-81
2022/04/05 08:28:05;;;;;;;0.73;0.73;;;7.50;99.90;;;;;;5001134;28;20034;-81
2022/04/05 08:30:32;;;;;;;0.88;0.63;;;7.50;99.90;;;;;;4999420;28;20180;-81
2022/04/05 08:32:58;;;;;;;0.75;0.75;;;7.50;99.90;;;;;;5001354;28;20038;-81
2022/04/05 08:35:24;;;;;;;0.30;0.30;;;7.50;99.90;;;;;;4999094;28;20042;-80
2022/04/05 08:37:51;;;;;;;1.17;0.85;;;7.60;99.90;;;;;;4990825;28;20181;-80
2022/04/05 08:40:20;;;;;;;1.50;0.90;;;7.60;99.90;;;;;;4999621;28;20041;-82
2022/04/05 08:42:48;;;;;;;1.25;0.40;;;7.50;99.90;;;;;;5001157;28;20045;-82
2022/04/05 08:45:16;;;;;;;0.20;0.20;;;7.60;99.90;;;;;;5010955;28;20042;-82
2022/04/05 08:47:52;;;;;;;0.32;0.32;;;7.60;99.90;;;;;;5001063;28;20076;-81
2022/04/05 08:50:25;;;;;;;0.80;0.80;;;7.60;99.90;;;;;;4993956;28;20540;-83
2022/04/05 08:52:51;;;;;;;0.60;0.57;;;7.60;99.90;;;;;;4985300;28;20065;-85
2022/04/05 08:55:19;;;;;;;1.10;1.08;;;7.60;99.90;;;;;;4995291;28;20103;-85
2022/04/05 08:57:47;;;;;;;1.65;1.23;;;7.70;99.90;;;;;;4997457;28;20133;-82
2022/04/05 09:00:15;;;;;;;0.55;0.55;;;7.70;99.90;;;;;;5000452;28;20125;-87
2022/04/05 09:02:58;;;;;;;0.22;0.22;;;7.70;99.90;;;;;;4997949;28;20045;-86
2022/04/05 09:05:32;;;;;;;0.47;0.47;;;7.80;99.90;;;;;;5001242;28;20134;-96
2022/04/05 09:08:30;;;;;;;0.47;0.47;;;7.80;99.90;;;;;;5002907;28;20046;-84
2022/04/05 09:11:08;;;;;;;2.55;0.55;;;7.80;99.90;;;;;;4998665;28;20132;-94
2022/04/05 09:13:33;;;;;;;0.68;0.68;;;7.80;99.90;;;;;;4985867;28;20049;-95
2022/04/05 09:16:04;;;;;;;1.42;0.88;;;7.80;99.90;;;;;;5001182;28;20058;-92
2022/04/05 09:18:37;;;;;;;0.80;0.80;;;7.80;99.90;;;;;;5000553;28;20532;-93
2022/04/05 09:21:06;;;;;;;0.20;0.20;;;7.80;99.90;;;;;;4984990;28;20042;-90
2022/04/05 09:23:33;;;;;;;0.30;0.30;;;7.80;99.90;;;;;;4984992;28;20046;-94
2022/04/05 09:26:08;;;;;;;0.57;0.57;;;7.90;99.90;;;;;;4982161;28;20061;-89
2022/04/05 09:28:52;;;;;;;0.50;0.50;;;8.00;99.90;;;;;;4985718;28;20553;-92
2022/04/05 09:31:20;;;;;;;0.30;0.30;;;8.00;99.90;;;;;;4971853;28;20057;-77
2022/04/05 09:34:05;;;;;;;0.52;0.52;;;8.00;99.90;;;;;;4997241;28;20046;-77
2022/04/05 09:36:36;;;;;;;0.35;0.30;;;8.00;99.90;;;;;;4999592;28;20038;-77
2022/04/05 09:39:10;;;;;;;0.40;0.40;;;8.00;99.90;;;;;;5001001;28;20126;-77
2022/04/05 09:41:36;;;;;;;0.20;0.20;;;8.00;99.90;;;;;;5001883;28;20038;-77
2022/04/05 09:44:02;;;;;;;0.47;0.47;;;8.10;99.90;;;;;;5001640;28;20060;-77
2022/04/05 09:46:29;;;;;;;0.20;0.20;;;8.10;99.90;;;;;;4979689;28;20061;-77
2022/04/05 09:49:04;;;;;;;0.40;0.40;;;8.10;99.90;;;;;;5000190;28;20185;-77
2022/04/05 09:51:35;;;;;;;0.20;0.20;;;8.10;99.90;;;;;;5000224;28;20038;-77
2022/04/05 09:54:00;;;;;;;0.30;0.30;;;8.10;99.90;;;;;;4981668;28;20196;-77
2022/04/05 09:56:31;;;;;;;0.40;0.40;;;8.20;99.90;;;;;;4996753;28;20173;-77
2022/04/05 09:59:04;;;;;;;0.65;0.40;;;8.20;99.90;;;;;;4980572;28;20037;-77
2022/04/05 10:01:32;;;;;;;0.20;0.20;;;8.20;99.90;;;;;;4984044;28;20593;-77
2022/04/05 10:04:06;;;;;;;0.20;0.20;;;8.20;99.90;;;;;;4985049;28;20117;-76
2022/04/05 10:06:33;;;;;;;0.20;0.20;;;8.30;99.90;;;;;;4987484;28;20045;-76
2022/04/05 10:09:00;;;;;;;0.40;0.40;;;8.30;99.90;;;;;;5001337;28;20152;-78
2022/04/05 10:11:28;;;;;;;0.40;0.40;;;8.40;99.90;;;;;;4992138;28;20216;-85
2022/04/05 10:13:54;;;;;;;0.55;0.32;;;8.40;99.90;;;;;;5004351;28;20084;-90
2022/04/05 10:16:24;;;;;;;0.38;0.35;;;8.50;99.90;;;;;;5003446;28;20196;-86
2022/04/05 10:18:51;;;;;;;0.55;0.55;;;8.50;99.90;;;;;;5001120;28;20546;-88
2022/04/05 10:21:18;;;;;;;0.30;0.30;;;8.50;99.90;;;;;;5001781;28;20589;-87
2022/04/05 10:23:46;;;;;;;0.57;0.57;;;8.60;99.90;;;;;;5003965;28;20034;-87
2022/04/05 10:26:18;;;;;;;0.20;0.20;;;8.60;99.90;;;;;;4988143;28;20065;-88
2022/04/05 10:28:46;;;;;;;;;;;8.70;99.90;;;;;;4988756;28;20133;-80
2022/04/05 10:31:20;;;;;;;0.40;0.40;;;8.70;99.90;;;;;;4999092;28;20254;-79
2022/04/05 10:34:28;;;;;;;0.25;0.25;;;8.80;99.90;;;;;;5000292;28;20559;-80
2022/04/05 10:37:28;;;;;;;0.52;0.52;;;8.80;99.90;;;;;;4943211;28;20042;-80
2022/04/05 10:39:56;;;;;;;0.20;0.20;;;8.90;99.90;;;;;;5001690;28;20501;-80
2022/04/05 10:42:25;;;;;;;0.47;0.47;;;8.90;99.90;;;;;;5003694;28;20030;-81
2022/04/05 10:45:08;;;;;;;0.90;0.90;;;8.90;99.90;;;;;;5004820;28;20140;-80
2022/04/05 10:48:11;;;;;;;0.80;0.80;;;9.00;99.90;;;;;;5004299;28;20045;-80
2022/04/05 10:50:37;;;;;;;0.65;0.65;;;9.10;99.90;;;;;;5002359;28;20060;-79
2022/04/05 10:53:29;;;;;;;0.40;0.40;;;9.10;99.90;;;;;;5002764;28;20046;-80
2022/04/05 10:56:03;;;;;;;1.17;1.10;;;9.20;99.90;;;;;;4997674;28;20351;-79
2022/04/05 10:58:34;;;;;;;0.70;0.70;;;9.20;99.90;;;;;;5000754;28;20060;-79
2022/04/05 11:01:19;;;;;;;0.90;0.90;;;9.30;99.90;;;;;;5002326;28;20061;-79
2022/04/05 11:04:11;;;;;;;0.60;0.60;;;9.40;99.90;;;;;;4984171;28;20054;-78
2022/04/05 11:07:02;;;;;;;0.82;0.82;;;9.40;99.90;;;;;;4980627;28;20544;-78
2022/04/05 11:09:32;;;;;;;2.15;1.52;;;9.40;99.90;;;;;;5001460;28;20272;-78
2022/04/05 11:12:10;;;;;;;0.95;0.95;;;9.40;99.90;;;;;;5002170;28;20050;-79
2022/04/05 11:14:43;;;;;;;3.08;1.52;;;9.50;99.90;;;;;;5001771;28;20500;-78
2022/04/05 11:17:09;;;;;;;;;;;9.50;99.90;;;;;;5002451;28;20038;-78
2022/04/05 11:19:37;;;;;;;0.88;0.88;;;9.50;99.90;;;;;;4998197;28;19960;-79
2022/04/05 11:22:25;;;;;;;1.48;1.38;;;9.60;99.90;;;;;;5002090;28;20050;-78
2022/04/05 11:25:07;;;;;;;1.42;1.42;;;9.60;99.90;;;;;;4984765;28;20049;-79
2022/04/05 11:27:46;;;;;;;;;;;9.70;99.90;;;;;;5001472;28;20437;-79
2022/04/05 11:30:25;;;;;;;1.45;1.42;;;9.70;99.90;;;;;;4993295;28;20478;-78
2022/04/05 11:33:09;;;;;;;3.35;2.20;;;9.80;99.90;;;;;;4989511;28;20054;-79
2022/04/05 11:36:11;;;;;;;2.50;1.50;;;9.80;99.90;;;;;;5001938;28;20048;-78
2022/04/05 11:38:39;;;;;;;2.58;2.35;;;9.80;99.90;;;;;;5002460;28;20038;-78
2022/04/05 11:41:19;;;;;;;0.80;0.80;;;9.80;99.90;;;;;;5000522;28;20056;-78
2022/04/05 11:43:48;;;;;;;1.50;1.40;;;9.90;99.90;;;;;;4983091;28;20119;-78
2022/04/05 11:46:19;;;;;;;2.05;1.95;;;9.90;99.90;;;;;;5000610;28;20448;-78
2022/04/05 11:48:48;;;;;;;2.53;2.33;;;10.00;99.90;;;;;;4981899;28;20037;-78
2022/04/05 11:51:16;;;;;;;1.92;1.75;;;10.00;99.90;;;;;;5004722;28;20049;-79
2022/04/05 11:53:43;;;;;;;8.23;1.80;;;10.00;99.90;;;;;;5017133;28;20065;-78
2022/04/05 11:56:17;;;;;;;3.03;2.72;;;10.10;99.90;;;;;;4977109;28;20054;-77
2022/04/05 11:58:51;;;;;;;3.83;3.50;;;10.20;99.90;;;;;;4985410;28;20056;-76
2022/04/05 12:01:22;;;;;;;2.45;2.30;;;10.20;99.90;;;;;;5002752;28;20053;-76
2022/04/05 12:03:59;;;;;;;4.07;2.72;;;10.20;99.90;;;;;;5000479;28;20037;-84
2022/04/05 12:06:29;;;;;;;4.72;2.17;;;10.30;99.90;;;;;;5002196;28;20518;-76
2022/04/05 12:08:57;;;;;;;2.15;1.92;;;10.20;99.90;;;;;;5003153;28;20444;-75
2022/04/05 12:11:24;;;;;;;2.58;2.38;;;10.20;99.90;;;;;;5002313;28;20058;-75
2022/04/05 12:14:01;;;;;;;4.47;2.50;;;10.20;99.90;;;;;;5002653;28;20141;-75
2022/04/05 12:16:50;;;;;;;0.98;0.98;;;10.20;99.90;;;;;;5001189;28;20048;-75
2022/04/05 12:19:28;;;;;;;2.95;2.15;;;10.10;99.90;;;;;;4987014;28;20057;-75
2022/04/05 12:22:05;;;;;;;2.28;1.95;;;10.10;99.90;;;;;;4984024;28;20129;-75
2022/04/05 12:24:32;;;;;;;2.10;1.55;;;10.00;99.90;;;;;;4983326;28;20112;-75
2022/04/05 12:26:58;;;;;;;4.38;2.45;;;10.00;99.90;;;;;;4984235;28;20700;-75
2022/04/05 12:29:25;;;;;;;1.92;1.63;;;10.00;99.90;;;;;;4984290;28;20049;-74
2022/04/05 12:31:50;;;;;;;2.28;2.17;;;10.00;99.90;;;;;;4998466;28;20034;-89
2022/04/05 12:34:18;;;;;;;1.92;1.83;;;9.90;99.90;;;;;;4982935;28;20079;-90
2022/04/05 12:36:46;;;;;;;6.85;3.00;;;9.90;99.90;;;;;;4984605;28;20038;-81
2022/04/05 12:39:20;;;;;;;14.02;4.50;;;9.90;99.90;;;;;;5002060;28;20045;-80
2022/04/05 12:41:51;;;;;;;7.13;4.18;;;9.90;99.90;;;;;;4983687;28;20049;-81
2022/04/05 12:44:19;;;;;;;4.20;3.10;;;9.80;99.90;;;;;;4983061;28;20073;-81
2022/04/05 12:46:50;;;;;;;5.55;2.35;;;9.80;99.90;;;;;;4985905;28;20083;-80
2022/04/05 12:49:17;;;;;;;3.28;2.97;;;9.80;99.90;;;;;;5000738;28;20046;-81
2022/04/05 12:51:42;;;;;;;3.00;2.35;;;9.80;99.90;;;;;;5001113;28;20042;-81
2022/04/05 12:54:32;;;;;;;7.78;3.90;;;9.70;99.90;;;;;;4999646;28;20049;-81
2022/04/05 12:57:19;;;;;;;8.90;3.38;;;9.70;99.90;;;;;;4996916;28;20045;-80
2022/04/05 12:59:46;;;;;;;6.80;3.10;;;9.70;99.90;;;;;;4984659;28;20774;-80
2022/04/05 13:02:25;;;;;;;5.13;3.72;;;9.70;99.90;;;;;;5001467;28;20048;-81
2022/04/05 13:06:19;;;;;;;26.77;3.40;;;9.70;99.90;;;;;;4997808;28;20034;-81